• Join FlightAware (Why Join?)
  • Login
  • US Flag GB Flag 
13:04 EST


 

Airport Tracker/Info


-or-


 

Live Flight TrackerFlight Track Log ✈ UCA4836 ✈ 23-Jun-2013 ✈ KCMH - KCLE

Flight Track Log - Related Links

Times and Time Zones

All times are in EDT time to prevent confusion due to time zone crossing. See the UCA4836 flight status page for this flight to view local times or setup timezone preferences in your user account.

Time Position Orientation Groundspeed Altitude Reporting Facility
EDT Latitude Longitude Course Direction KTS MPH feet Rate Location/Type
13:45 40.0025 -82.9103 306° West 136 157 1,200  Level Indianapolis Center
13:45 40.0136 -82.9306 306° West 153 176 1,900 1,140 Climbing Indianapolis Center
13:46 40.0697 -82.9369 355° North 197 227 3,100 1,140 Climbing Indianapolis Center
13:47 40.1175 -82.9425 355° North 191 220 4,300 1,140 Climbing Indianapolis Center
13:48 40.1703 -82.9375 North 199 229 5,400 1,260 Climbing Indianapolis Center
13:49 40.1953 -82.8750 62° Northeast 194 223 6,900 1,320 Climbing Indianapolis Center
13:50 40.2164 -82.8117 66° East 187 215 8,200 1,080 Climbing Indianapolis Center
13:51 40.2392 -82.7517 64° Northeast 195 224 9,000 480 Climbing Indianapolis Center
13:52 40.2564 -82.7025 65° Northeast 215 247 9,000  Level Indianapolis Center
13:53 40.2875 -82.6144 65° Northeast 259 298 9,000  Level Indianapolis Center
13:54 40.3183 -82.5247 66° East 268 308 9,000  Level Indianapolis Center
13:55 40.3492 -82.4344 66° East 269 310 9,000  Level Indianapolis Center
13:56 40.3819 -82.3450 64° Northeast 270 311 9,000  Level Indianapolis Center
13:57 40.4131 -82.2553 65° Northeast 268 308 9,000  Level Indianapolis Center
13:58 40.4736 -82.2128 28° Northeast 267 307 9,000  Level Indianapolis Center
13:59 40.5481 -82.2142 359° North 264 304 9,000  Level Indianapolis Center
14:00 40.6361 -82.2069 North 268 308 9,000  Level Indianapolis Center
14:01 40.7083 -82.1878 11° North 270 311 9,000  Level Indianapolis Center
14:02 40.7514 -82.0878 60° Northeast 244 281 9,000  Level Cleveland Center
14:03 40.7814 -82.0172 61° Northeast 275 316 9,000  Level Cleveland Center
14:04 40.8094 -81.9492 61° Northeast 271 312 9,000  Level Cleveland Center
14:05 40.8372 -81.8894 58° Northeast 273 314 9,000  Level Cleveland Center
14:05 40.8567 -81.8322 66° East 262 302 9,000  Level Cleveland Center
14:06 40.8800 -81.7806 59° Northeast 271 312 9,000 -240 Level Cleveland Center
14:07 40.9144 -81.6958 62° Northeast 274 315 8,700 -540 Descending Cleveland Center
14:07 40.9333 -81.6578 57° Northeast 267 307 8,300 -480 Descending Cleveland Center
14:08 41.0106 -81.6508 North 248 285 8,000 -240 Descending Cleveland Center
14:09 41.0833 -81.6683 350° North 248 285 7,900 -540 Descending Cleveland Center
14:10 41.1625 -81.6781 355° North 275 316 7,000 -480 Descending Cleveland Center
14:11 41.2353 -81.7097 342° North 275 316 7,000  Level Cleveland Center
14:12 41.3078 -81.7578 334° Northwest 270 311 7,000 -420 Level Cleveland Center
14:14 41.3808 -81.7425 North 216 249 6,000 -420 Descending Cleveland Center
14:15 41.4231 -81.6853 45° Northeast 203 234 6,000 -120 Level Cleveland Center
14:16 41.4611 -81.6306 47° Northeast 203 234 5,800 -540 Descending Cleveland Center
14:17 41.5011 -81.5756 46° Northeast 215 247 5,000 -840 Descending Cleveland Center
14:18 41.5511 -81.5931 345° North 194 223 4,200 -540 Descending Cleveland Center
14:19 41.5400 -81.6539 256° West 167 192 4,000 -420 Descending Cleveland Center
14:20 41.5106 -81.6978 228° Southwest 180 207 3,500 -600 Descending Cleveland Center